<?xml version="1.0" encoding="UTF-8" standalone="no" ?>
<gpx version="1.1" creator="Visorando" xmlns:xsi="http://www.w3.org/2001/XMLSchema-instance" xmlns="http://www.topografix.com/GPX/1/1" xsi:schemaLocation="http://www.topografix.com/GPX/1/1 http://www.topografix.com/GPX/1/1/gpx.xsd">
 <metadata>
  <name>Randonnée du 08/06/2020 à 16:06</name>
  <link href="https://www.visorando.com/randonnee-/3377887">
   <text>https://www.visorando.com/randonnee-/3377887</text>
  </link>
 </metadata>
 <trk>
  <name>Randonnée du 08/06/2020 à 16:06</name>
  <trkseg>
   <trkpt lat="47.855233" lon="6.819064">
    <ele>0</ele>
    <time>2020-06-09T09:51:43+02:00</time>
   </trkpt>
   <trkpt lat="47.855377" lon="6.819407">
    <ele>0</ele>
    <time>2020-06-09T09:51:48+02:00</time>
   </trkpt>
   <trkpt lat="47.855233" lon="6.820223">
    <ele>0</ele>
    <time>2020-06-09T09:51:53+02:00</time>
   </trkpt>
   <trkpt lat="47.855204" lon="6.82121">
    <ele>0</ele>
    <time>2020-06-09T09:51:58+02:00</time>
   </trkpt>
   <trkpt lat="47.855319" lon="6.821682">
    <ele>0</ele>
    <time>2020-06-09T09:52:03+02:00</time>
   </trkpt>
   <trkpt lat="47.855434" lon="6.822068">
    <ele>0</ele>
    <time>2020-06-09T09:52:08+02:00</time>
   </trkpt>
   <trkpt lat="47.855291" lon="6.822712">
    <ele>0</ele>
    <time>2020-06-09T09:52:13+02:00</time>
   </trkpt>
   <trkpt lat="47.855578" lon="6.822969">
    <ele>0</ele>
    <time>2020-06-09T09:52:18+02:00</time>
   </trkpt>
   <trkpt lat="47.85627" lon="6.822884">
    <ele>0</ele>
    <time>2020-06-09T09:52:23+02:00</time>
   </trkpt>
   <trkpt lat="47.856788" lon="6.822884">
    <ele>0</ele>
    <time>2020-06-09T09:52:28+02:00</time>
   </trkpt>
   <trkpt lat="47.857105" lon="6.823828">
    <ele>0</ele>
    <time>2020-06-09T09:52:33+02:00</time>
   </trkpt>
   <trkpt lat="47.857364" lon="6.824343">
    <ele>0</ele>
    <time>2020-06-09T09:52:38+02:00</time>
   </trkpt>
   <trkpt lat="47.857738" lon="6.82533">
    <ele>0</ele>
    <time>2020-06-09T09:52:43+02:00</time>
   </trkpt>
   <trkpt lat="47.858804" lon="6.826918">
    <ele>0</ele>
    <time>2020-06-09T09:52:48+02:00</time>
   </trkpt>
   <trkpt lat="47.858976" lon="6.826918">
    <ele>0</ele>
    <time>2020-06-09T09:52:53+02:00</time>
   </trkpt>
   <trkpt lat="47.858573" lon="6.827862">
    <ele>0</ele>
    <time>2020-06-09T09:52:58+02:00</time>
   </trkpt>
   <trkpt lat="47.858084" lon="6.828935">
    <ele>0</ele>
    <time>2020-06-09T09:53:03+02:00</time>
   </trkpt>
   <trkpt lat="47.857335" lon="6.830823">
    <ele>0</ele>
    <time>2020-06-09T09:53:08+02:00</time>
   </trkpt>
   <trkpt lat="47.856903" lon="6.832025">
    <ele>0</ele>
    <time>2020-06-09T09:53:13+02:00</time>
   </trkpt>
   <trkpt lat="47.856327" lon="6.832711">
    <ele>0</ele>
    <time>2020-06-09T09:53:18+02:00</time>
   </trkpt>
   <trkpt lat="47.855377" lon="6.833827">
    <ele>0</ele>
    <time>2020-06-09T09:53:23+02:00</time>
   </trkpt>
   <trkpt lat="47.855118" lon="6.834213">
    <ele>0</ele>
    <time>2020-06-09T09:53:28+02:00</time>
   </trkpt>
   <trkpt lat="47.854542" lon="6.834685">
    <ele>0</ele>
    <time>2020-06-09T09:53:33+02:00</time>
   </trkpt>
   <trkpt lat="47.854139" lon="6.835072">
    <ele>0</ele>
    <time>2020-06-09T09:53:38+02:00</time>
   </trkpt>
   <trkpt lat="47.853851" lon="6.835672">
    <ele>0</ele>
    <time>2020-06-09T09:53:43+02:00</time>
   </trkpt>
   <trkpt lat="47.853649" lon="6.836359">
    <ele>0</ele>
    <time>2020-06-09T09:53:48+02:00</time>
   </trkpt>
   <trkpt lat="47.853476" lon="6.836788">
    <ele>0</ele>
    <time>2020-06-09T09:53:53+02:00</time>
   </trkpt>
   <trkpt lat="47.853275" lon="6.837132">
    <ele>0</ele>
    <time>2020-06-09T09:53:58+02:00</time>
   </trkpt>
   <trkpt lat="47.853217" lon="6.837604">
    <ele>0</ele>
    <time>2020-06-09T09:54:03+02:00</time>
   </trkpt>
   <trkpt lat="47.853188" lon="6.838204">
    <ele>0</ele>
    <time>2020-06-09T09:54:08+02:00</time>
   </trkpt>
   <trkpt lat="47.85267" lon="6.839149">
    <ele>0</ele>
    <time>2020-06-09T09:54:13+02:00</time>
   </trkpt>
   <trkpt lat="47.852296" lon="6.839406">
    <ele>0</ele>
    <time>2020-06-09T09:54:18+02:00</time>
   </trkpt>
   <trkpt lat="47.852238" lon="6.839406">
    <ele>0</ele>
    <time>2020-06-09T09:54:23+02:00</time>
   </trkpt>
   <trkpt lat="47.851864" lon="6.84035">
    <ele>0</ele>
    <time>2020-06-09T09:54:28+02:00</time>
   </trkpt>
   <trkpt lat="47.851633" lon="6.840908">
    <ele>0</ele>
    <time>2020-06-09T09:54:33+02:00</time>
   </trkpt>
   <trkpt lat="47.85172" lon="6.841509">
    <ele>0</ele>
    <time>2020-06-09T09:54:38+02:00</time>
   </trkpt>
   <trkpt lat="47.851662" lon="6.842539">
    <ele>0</ele>
    <time>2020-06-09T09:54:43+02:00</time>
   </trkpt>
   <trkpt lat="47.851547" lon="6.843655">
    <ele>0</ele>
    <time>2020-06-09T09:54:48+02:00</time>
   </trkpt>
   <trkpt lat="47.851777" lon="6.84477">
    <ele>0</ele>
    <time>2020-06-09T09:54:53+02:00</time>
   </trkpt>
   <trkpt lat="47.851864" lon="6.8455">
    <ele>0</ele>
    <time>2020-06-09T09:54:58+02:00</time>
   </trkpt>
   <trkpt lat="47.85172" lon="6.846058">
    <ele>0</ele>
    <time>2020-06-09T09:55:03+02:00</time>
   </trkpt>
   <trkpt lat="47.851576" lon="6.84683">
    <ele>0</ele>
    <time>2020-06-09T09:55:08+02:00</time>
   </trkpt>
   <trkpt lat="47.85123" lon="6.847474">
    <ele>0</ele>
    <time>2020-06-09T09:55:13+02:00</time>
   </trkpt>
   <trkpt lat="47.851057" lon="6.84786">
    <ele>0</ele>
    <time>2020-06-09T09:55:18+02:00</time>
   </trkpt>
   <trkpt lat="47.851057" lon="6.84829">
    <ele>0</ele>
    <time>2020-06-09T09:55:23+02:00</time>
   </trkpt>
   <trkpt lat="47.850827" lon="6.848933">
    <ele>0</ele>
    <time>2020-06-09T09:55:28+02:00</time>
   </trkpt>
   <trkpt lat="47.850452" lon="6.849105">
    <ele>0</ele>
    <time>2020-06-09T09:55:33+02:00</time>
   </trkpt>
   <trkpt lat="47.849848" lon="6.849448">
    <ele>0</ele>
    <time>2020-06-09T09:55:38+02:00</time>
   </trkpt>
   <trkpt lat="47.849646" lon="6.84962">
    <ele>0</ele>
    <time>2020-06-09T09:55:43+02:00</time>
   </trkpt>
   <trkpt lat="47.849646" lon="6.850006">
    <ele>0</ele>
    <time>2020-06-09T09:55:48+02:00</time>
   </trkpt>
   <trkpt lat="47.849272" lon="6.850435">
    <ele>0</ele>
    <time>2020-06-09T09:55:53+02:00</time>
   </trkpt>
   <trkpt lat="47.848868" lon="6.850822">
    <ele>0</ele>
    <time>2020-06-09T09:55:58+02:00</time>
   </trkpt>
   <trkpt lat="47.848494" lon="6.850993">
    <ele>0</ele>
    <time>2020-06-09T09:56:03+02:00</time>
   </trkpt>
   <trkpt lat="47.84812" lon="6.851937">
    <ele>0</ele>
    <time>2020-06-09T09:56:08+02:00</time>
   </trkpt>
   <trkpt lat="47.847572" lon="6.852452">
    <ele>0</ele>
    <time>2020-06-09T09:56:13+02:00</time>
   </trkpt>
   <trkpt lat="47.847371" lon="6.853396">
    <ele>0</ele>
    <time>2020-06-09T09:56:18+02:00</time>
   </trkpt>
   <trkpt lat="47.847112" lon="6.853654">
    <ele>0</ele>
    <time>2020-06-09T09:56:23+02:00</time>
   </trkpt>
   <trkpt lat="47.846939" lon="6.854169">
    <ele>0</ele>
    <time>2020-06-09T09:56:28+02:00</time>
   </trkpt>
   <trkpt lat="47.846824" lon="6.854684">
    <ele>0</ele>
    <time>2020-06-09T09:56:33+02:00</time>
   </trkpt>
   <trkpt lat="47.846564" lon="6.855027">
    <ele>0</ele>
    <time>2020-06-09T09:56:38+02:00</time>
   </trkpt>
   <trkpt lat="47.846248" lon="6.855628">
    <ele>0</ele>
    <time>2020-06-09T09:56:43+02:00</time>
   </trkpt>
   <trkpt lat="47.846075" lon="6.855886">
    <ele>0</ele>
    <time>2020-06-09T09:56:48+02:00</time>
   </trkpt>
   <trkpt lat="47.845873" lon="6.855971">
    <ele>0</ele>
    <time>2020-06-09T09:56:53+02:00</time>
   </trkpt>
   <trkpt lat="47.845355" lon="6.856572">
    <ele>0</ele>
    <time>2020-06-09T09:56:58+02:00</time>
   </trkpt>
   <trkpt lat="47.844952" lon="6.85713">
    <ele>0</ele>
    <time>2020-06-09T09:57:03+02:00</time>
   </trkpt>
   <trkpt lat="47.844779" lon="6.857302">
    <ele>0</ele>
    <time>2020-06-09T09:57:08+02:00</time>
   </trkpt>
   <trkpt lat="47.844404" lon="6.857516">
    <ele>0</ele>
    <time>2020-06-09T09:57:13+02:00</time>
   </trkpt>
   <trkpt lat="47.843915" lon="6.857817">
    <ele>0</ele>
    <time>2020-06-09T09:57:18+02:00</time>
   </trkpt>
   <trkpt lat="47.843598" lon="6.858074">
    <ele>0</ele>
    <time>2020-06-09T09:57:23+02:00</time>
   </trkpt>
   <trkpt lat="47.843079" lon="6.858546">
    <ele>0</ele>
    <time>2020-06-09T09:57:28+02:00</time>
   </trkpt>
   <trkpt lat="47.84259" lon="6.858675">
    <ele>0</ele>
    <time>2020-06-09T09:57:33+02:00</time>
   </trkpt>
   <trkpt lat="47.842014" lon="6.858675">
    <ele>0</ele>
    <time>2020-06-09T09:57:38+02:00</time>
   </trkpt>
   <trkpt lat="47.841063" lon="6.858847">
    <ele>0</ele>
    <time>2020-06-09T09:57:43+02:00</time>
   </trkpt>
   <trkpt lat="47.840458" lon="6.858847">
    <ele>0</ele>
    <time>2020-06-09T09:57:48+02:00</time>
   </trkpt>
   <trkpt lat="47.840199" lon="6.858847">
    <ele>0</ele>
    <time>2020-06-09T09:57:53+02:00</time>
   </trkpt>
   <trkpt lat="47.839796" lon="6.859061">
    <ele>0</ele>
    <time>2020-06-09T09:57:58+02:00</time>
   </trkpt>
   <trkpt lat="47.83994" lon="6.859791">
    <ele>0</ele>
    <time>2020-06-09T09:58:03+02:00</time>
   </trkpt>
   <trkpt lat="47.840141" lon="6.859834">
    <ele>0</ele>
    <time>2020-06-09T09:58:08+02:00</time>
   </trkpt>
   <trkpt lat="47.840689" lon="6.860435">
    <ele>0</ele>
    <time>2020-06-09T09:58:13+02:00</time>
   </trkpt>
   <trkpt lat="47.841236" lon="6.861035">
    <ele>0</ele>
    <time>2020-06-09T09:58:18+02:00</time>
   </trkpt>
   <trkpt lat="47.841783" lon="6.861207">
    <ele>0</ele>
    <time>2020-06-09T09:58:23+02:00</time>
   </trkpt>
   <trkpt lat="47.841985" lon="6.861679">
    <ele>0</ele>
    <time>2020-06-09T09:58:28+02:00</time>
   </trkpt>
   <trkpt lat="47.84233" lon="6.862151">
    <ele>0</ele>
    <time>2020-06-09T09:58:33+02:00</time>
   </trkpt>
   <trkpt lat="47.84259" lon="6.862495">
    <ele>0</ele>
    <time>2020-06-09T09:58:38+02:00</time>
   </trkpt>
   <trkpt lat="47.842676" lon="6.862709">
    <ele>0</ele>
    <time>2020-06-09T09:58:43+02:00</time>
   </trkpt>
   <trkpt lat="47.842791" lon="6.863439">
    <ele>0</ele>
    <time>2020-06-09T09:58:48+02:00</time>
   </trkpt>
   <trkpt lat="47.843079" lon="6.863782">
    <ele>0</ele>
    <time>2020-06-09T09:58:53+02:00</time>
   </trkpt>
   <trkpt lat="47.843367" lon="6.863997">
    <ele>0</ele>
    <time>2020-06-09T09:58:58+02:00</time>
   </trkpt>
   <trkpt lat="47.843972" lon="6.864426">
    <ele>0</ele>
    <time>2020-06-09T09:59:03+02:00</time>
   </trkpt>
   <trkpt lat="47.844203" lon="6.864683">
    <ele>0</ele>
    <time>2020-06-09T09:59:08+02:00</time>
   </trkpt>
   <trkpt lat="47.844692" lon="6.864898">
    <ele>0</ele>
    <time>2020-06-09T09:59:13+02:00</time>
   </trkpt>
   <trkpt lat="47.844865" lon="6.864898">
    <ele>0</ele>
    <time>2020-06-09T09:59:18+02:00</time>
   </trkpt>
   <trkpt lat="47.844347" lon="6.865456">
    <ele>0</ele>
    <time>2020-06-09T09:59:23+02:00</time>
   </trkpt>
   <trkpt lat="47.843627" lon="6.866056">
    <ele>0</ele>
    <time>2020-06-09T09:59:28+02:00</time>
   </trkpt>
   <trkpt lat="47.843454" lon="6.866228">
    <ele>0</ele>
    <time>2020-06-09T09:59:33+02:00</time>
   </trkpt>
   <trkpt lat="47.843079" lon="6.867086">
    <ele>0</ele>
    <time>2020-06-09T09:59:38+02:00</time>
   </trkpt>
   <trkpt lat="47.842705" lon="6.867816">
    <ele>0</ele>
    <time>2020-06-09T09:59:43+02:00</time>
   </trkpt>
   <trkpt lat="47.842244" lon="6.868932">
    <ele>0</ele>
    <time>2020-06-09T09:59:48+02:00</time>
   </trkpt>
   <trkpt lat="47.842014" lon="6.869576">
    <ele>0</ele>
    <time>2020-06-09T09:59:53+02:00</time>
   </trkpt>
   <trkpt lat="47.841956" lon="6.870176">
    <ele>0</ele>
    <time>2020-06-09T09:59:58+02:00</time>
   </trkpt>
   <trkpt lat="47.842158" lon="6.870863">
    <ele>0</ele>
    <time>2020-06-09T10:00:03+02:00</time>
   </trkpt>
   <trkpt lat="47.842158" lon="6.871678">
    <ele>0</ele>
    <time>2020-06-09T10:00:08+02:00</time>
   </trkpt>
   <trkpt lat="47.842071" lon="6.872537">
    <ele>0</ele>
    <time>2020-06-09T10:00:13+02:00</time>
   </trkpt>
   <trkpt lat="47.842417" lon="6.873738">
    <ele>0</ele>
    <time>2020-06-09T10:00:18+02:00</time>
   </trkpt>
   <trkpt lat="47.842446" lon="6.874682">
    <ele>0</ele>
    <time>2020-06-09T10:00:23+02:00</time>
   </trkpt>
   <trkpt lat="47.842532" lon="6.875541">
    <ele>0</ele>
    <time>2020-06-09T10:00:28+02:00</time>
   </trkpt>
   <trkpt lat="47.842878" lon="6.876785">
    <ele>0</ele>
    <time>2020-06-09T10:00:33+02:00</time>
   </trkpt>
   <trkpt lat="47.843022" lon="6.877472">
    <ele>0</ele>
    <time>2020-06-09T10:00:38+02:00</time>
   </trkpt>
   <trkpt lat="47.842964" lon="6.87833">
    <ele>0</ele>
    <time>2020-06-09T10:00:43+02:00</time>
   </trkpt>
   <trkpt lat="47.843108" lon="6.879661">
    <ele>0</ele>
    <time>2020-06-09T10:00:48+02:00</time>
   </trkpt>
   <trkpt lat="47.842878" lon="6.880648">
    <ele>0</ele>
    <time>2020-06-09T10:00:53+02:00</time>
   </trkpt>
   <trkpt lat="47.842907" lon="6.880819">
    <ele>0</ele>
    <time>2020-06-09T10:00:58+02:00</time>
   </trkpt>
   <trkpt lat="47.842676" lon="6.881721">
    <ele>0</ele>
    <time>2020-06-09T10:01:03+02:00</time>
   </trkpt>
   <trkpt lat="47.842676" lon="6.88245">
    <ele>0</ele>
    <time>2020-06-09T10:01:08+02:00</time>
   </trkpt>
   <trkpt lat="47.843684" lon="6.883695">
    <ele>0</ele>
    <time>2020-06-09T10:01:13+02:00</time>
   </trkpt>
   <trkpt lat="47.84403" lon="6.884338">
    <ele>0</ele>
    <time>2020-06-09T10:01:18+02:00</time>
   </trkpt>
   <trkpt lat="47.844548" lon="6.884639">
    <ele>0</ele>
    <time>2020-06-09T10:01:23+02:00</time>
   </trkpt>
   <trkpt lat="47.844635" lon="6.885068">
    <ele>0</ele>
    <time>2020-06-09T10:01:28+02:00</time>
   </trkpt>
   <trkpt lat="47.845009" lon="6.885926">
    <ele>0</ele>
    <time>2020-06-09T10:01:33+02:00</time>
   </trkpt>
   <trkpt lat="47.845412" lon="6.886656">
    <ele>0</ele>
    <time>2020-06-09T10:01:38+02:00</time>
   </trkpt>
   <trkpt lat="47.845844" lon="6.887128">
    <ele>0</ele>
    <time>2020-06-09T10:01:43+02:00</time>
   </trkpt>
   <trkpt lat="47.845902" lon="6.8879">
    <ele>0</ele>
    <time>2020-06-09T10:01:48+02:00</time>
   </trkpt>
   <trkpt lat="47.846132" lon="6.888544">
    <ele>0</ele>
    <time>2020-06-09T10:01:53+02:00</time>
   </trkpt>
   <trkpt lat="47.846536" lon="6.889317">
    <ele>0</ele>
    <time>2020-06-09T10:01:58+02:00</time>
   </trkpt>
   <trkpt lat="47.84668" lon="6.889917">
    <ele>0</ele>
    <time>2020-06-09T10:02:03+02:00</time>
   </trkpt>
   <trkpt lat="47.846852" lon="6.890132">
    <ele>0</ele>
    <time>2020-06-09T10:02:08+02:00</time>
   </trkpt>
   <trkpt lat="47.847284" lon="6.890475">
    <ele>0</ele>
    <time>2020-06-09T10:02:13+02:00</time>
   </trkpt>
   <trkpt lat="47.847947" lon="6.890904">
    <ele>0</ele>
    <time>2020-06-09T10:02:18+02:00</time>
   </trkpt>
   <trkpt lat="47.848235" lon="6.891505">
    <ele>0</ele>
    <time>2020-06-09T10:02:23+02:00</time>
   </trkpt>
   <trkpt lat="47.84858" lon="6.89202">
    <ele>0</ele>
    <time>2020-06-09T10:02:28+02:00</time>
   </trkpt>
   <trkpt lat="47.848926" lon="6.892235">
    <ele>0</ele>
    <time>2020-06-09T10:02:33+02:00</time>
   </trkpt>
   <trkpt lat="47.849128" lon="6.89275">
    <ele>0</ele>
    <time>2020-06-09T10:02:38+02:00</time>
   </trkpt>
   <trkpt lat="47.849876" lon="6.893179">
    <ele>0</ele>
    <time>2020-06-09T10:02:43+02:00</time>
   </trkpt>
   <trkpt lat="47.849905" lon="6.894037">
    <ele>0</ele>
    <time>2020-06-09T10:02:48+02:00</time>
   </trkpt>
   <trkpt lat="47.85051" lon="6.894853">
    <ele>0</ele>
    <time>2020-06-09T10:02:53+02:00</time>
   </trkpt>
   <trkpt lat="47.850769" lon="6.895282">
    <ele>0</ele>
    <time>2020-06-09T10:02:58+02:00</time>
   </trkpt>
   <trkpt lat="47.851288" lon="6.896226">
    <ele>0</ele>
    <time>2020-06-09T10:03:03+02:00</time>
   </trkpt>
   <trkpt lat="47.851662" lon="6.896741">
    <ele>0</ele>
    <time>2020-06-09T10:03:08+02:00</time>
   </trkpt>
   <trkpt lat="47.852209" lon="6.897256">
    <ele>0</ele>
    <time>2020-06-09T10:03:13+02:00</time>
   </trkpt>
   <trkpt lat="47.852267" lon="6.897985">
    <ele>0</ele>
    <time>2020-06-09T10:03:18+02:00</time>
   </trkpt>
   <trkpt lat="47.852526" lon="6.898586">
    <ele>0</ele>
    <time>2020-06-09T10:03:23+02:00</time>
   </trkpt>
   <trkpt lat="47.852152" lon="6.898758">
    <ele>0</ele>
    <time>2020-06-09T10:03:28+02:00</time>
   </trkpt>
   <trkpt lat="47.85172" lon="6.8982">
    <ele>0</ele>
    <time>2020-06-09T10:03:33+02:00</time>
   </trkpt>
   <trkpt lat="47.851403" lon="6.897985">
    <ele>0</ele>
    <time>2020-06-09T10:03:38+02:00</time>
   </trkpt>
   <trkpt lat="47.851086" lon="6.897771">
    <ele>0</ele>
    <time>2020-06-09T10:03:43+02:00</time>
   </trkpt>
   <trkpt lat="47.850625" lon="6.89687">
    <ele>0</ele>
    <time>2020-06-09T10:03:48+02:00</time>
   </trkpt>
   <trkpt lat="47.850222" lon="6.896483">
    <ele>0</ele>
    <time>2020-06-09T10:03:53+02:00</time>
   </trkpt>
   <trkpt lat="47.849905" lon="6.896097">
    <ele>0</ele>
    <time>2020-06-09T10:03:58+02:00</time>
   </trkpt>
   <trkpt lat="47.849675" lon="6.895539">
    <ele>0</ele>
    <time>2020-06-09T10:04:03+02:00</time>
   </trkpt>
   <trkpt lat="47.849128" lon="6.895153">
    <ele>0</ele>
    <time>2020-06-09T10:04:08+02:00</time>
   </trkpt>
   <trkpt lat="47.848667" lon="6.894767">
    <ele>0</ele>
    <time>2020-06-09T10:04:13+02:00</time>
   </trkpt>
   <trkpt lat="47.847976" lon="6.894338">
    <ele>0</ele>
    <time>2020-06-09T10:04:18+02:00</time>
   </trkpt>
   <trkpt lat="47.847227" lon="6.893994">
    <ele>0</ele>
    <time>2020-06-09T10:04:23+02:00</time>
   </trkpt>
   <trkpt lat="47.846795" lon="6.893866">
    <ele>0</ele>
    <time>2020-06-09T10:04:28+02:00</time>
   </trkpt>
   <trkpt lat="47.846449" lon="6.893608">
    <ele>0</ele>
    <time>2020-06-09T10:04:33+02:00</time>
   </trkpt>
   <trkpt lat="47.84596" lon="6.893179">
    <ele>0</ele>
    <time>2020-06-09T10:04:38+02:00</time>
   </trkpt>
   <trkpt lat="47.845729" lon="6.893522">
    <ele>0</ele>
    <time>2020-06-09T10:04:43+02:00</time>
   </trkpt>
   <trkpt lat="47.845758" lon="6.89408">
    <ele>0</ele>
    <time>2020-06-09T10:04:48+02:00</time>
   </trkpt>
   <trkpt lat="47.845614" lon="6.894638">
    <ele>0</ele>
    <time>2020-06-09T10:04:53+02:00</time>
   </trkpt>
   <trkpt lat="47.845384" lon="6.895282">
    <ele>0</ele>
    <time>2020-06-09T10:04:58+02:00</time>
   </trkpt>
   <trkpt lat="47.845124" lon="6.894853">
    <ele>0</ele>
    <time>2020-06-09T10:05:03+02:00</time>
   </trkpt>
   <trkpt lat="47.844779" lon="6.894381">
    <ele>0</ele>
    <time>2020-06-09T10:05:08+02:00</time>
   </trkpt>
   <trkpt lat="47.844721" lon="6.893951">
    <ele>0</ele>
    <time>2020-06-09T10:05:13+02:00</time>
   </trkpt>
   <trkpt lat="47.844145" lon="6.89378">
    <ele>0</ele>
    <time>2020-06-09T10:05:18+02:00</time>
   </trkpt>
   <trkpt lat="47.843137" lon="6.892793">
    <ele>0</ele>
    <time>2020-06-09T10:05:23+02:00</time>
   </trkpt>
   <trkpt lat="47.842503" lon="6.892492">
    <ele>0</ele>
    <time>2020-06-09T10:05:28+02:00</time>
   </trkpt>
   <trkpt lat="47.842302" lon="6.892364">
    <ele>0</ele>
    <time>2020-06-09T10:05:33+02:00</time>
   </trkpt>
   <trkpt lat="47.842215" lon="6.891934">
    <ele>0</ele>
    <time>2020-06-09T10:05:38+02:00</time>
   </trkpt>
   <trkpt lat="47.8421" lon="6.891162">
    <ele>0</ele>
    <time>2020-06-09T10:05:43+02:00</time>
   </trkpt>
   <trkpt lat="47.841898" lon="6.890733">
    <ele>0</ele>
    <time>2020-06-09T10:05:48+02:00</time>
   </trkpt>
   <trkpt lat="47.84138" lon="6.890819">
    <ele>0</ele>
    <time>2020-06-09T10:05:53+02:00</time>
   </trkpt>
   <trkpt lat="47.840602" lon="6.890819">
    <ele>0</ele>
    <time>2020-06-09T10:05:58+02:00</time>
   </trkpt>
   <trkpt lat="47.840113" lon="6.891634">
    <ele>0</ele>
    <time>2020-06-09T10:06:03+02:00</time>
   </trkpt>
   <trkpt lat="47.83945" lon="6.891934">
    <ele>0</ele>
    <time>2020-06-09T10:06:08+02:00</time>
   </trkpt>
   <trkpt lat="47.839133" lon="6.892106">
    <ele>0</ele>
    <time>2020-06-09T10:06:13+02:00</time>
   </trkpt>
   <trkpt lat="47.838845" lon="6.891849">
    <ele>0</ele>
    <time>2020-06-09T10:06:18+02:00</time>
   </trkpt>
   <trkpt lat="47.838672" lon="6.891162">
    <ele>0</ele>
    <time>2020-06-09T10:06:23+02:00</time>
   </trkpt>
   <trkpt lat="47.838183" lon="6.891377">
    <ele>0</ele>
    <time>2020-06-09T10:06:28+02:00</time>
   </trkpt>
   <trkpt lat="47.837952" lon="6.891162">
    <ele>0</ele>
    <time>2020-06-09T10:06:33+02:00</time>
   </trkpt>
   <trkpt lat="47.837722" lon="6.891076">
    <ele>0</ele>
    <time>2020-06-09T10:06:38+02:00</time>
   </trkpt>
   <trkpt lat="47.837462" lon="6.891119">
    <ele>0</ele>
    <time>2020-06-09T10:06:43+02:00</time>
   </trkpt>
   <trkpt lat="47.837635" lon="6.890218">
    <ele>0</ele>
    <time>2020-06-09T10:06:48+02:00</time>
   </trkpt>
   <trkpt lat="47.837779" lon="6.889874">
    <ele>0</ele>
    <time>2020-06-09T10:06:53+02:00</time>
   </trkpt>
   <trkpt lat="47.838298" lon="6.889231">
    <ele>0</ele>
    <time>2020-06-09T10:06:58+02:00</time>
   </trkpt>
   <trkpt lat="47.838096" lon="6.888287">
    <ele>0</ele>
    <time>2020-06-09T10:07:03+02:00</time>
   </trkpt>
   <trkpt lat="47.837952" lon="6.887471">
    <ele>0</ele>
    <time>2020-06-09T10:07:08+02:00</time>
   </trkpt>
   <trkpt lat="47.837837" lon="6.886441">
    <ele>0</ele>
    <time>2020-06-09T10:07:13+02:00</time>
   </trkpt>
   <trkpt lat="47.83752" lon="6.885755">
    <ele>0</ele>
    <time>2020-06-09T10:07:18+02:00</time>
   </trkpt>
   <trkpt lat="47.837405" lon="6.884853">
    <ele>0</ele>
    <time>2020-06-09T10:07:23+02:00</time>
   </trkpt>
   <trkpt lat="47.837405" lon="6.884467">
    <ele>0</ele>
    <time>2020-06-09T10:07:28+02:00</time>
   </trkpt>
   <trkpt lat="47.836944" lon="6.884253">
    <ele>0</ele>
    <time>2020-06-09T10:07:33+02:00</time>
   </trkpt>
   <trkpt lat="47.836858" lon="6.884253">
    <ele>0</ele>
    <time>2020-06-09T10:07:38+02:00</time>
   </trkpt>
   <trkpt lat="47.836771" lon="6.883823">
    <ele>0</ele>
    <time>2020-06-09T10:07:43+02:00</time>
   </trkpt>
   <trkpt lat="47.836598" lon="6.88318">
    <ele>0</ele>
    <time>2020-06-09T10:07:48+02:00</time>
   </trkpt>
   <trkpt lat="47.836281" lon="6.882236">
    <ele>0</ele>
    <time>2020-06-09T10:07:53+02:00</time>
   </trkpt>
   <trkpt lat="47.836109" lon="6.881849">
    <ele>0</ele>
    <time>2020-06-09T10:07:58+02:00</time>
   </trkpt>
   <trkpt lat="47.836195" lon="6.881249">
    <ele>0</ele>
    <time>2020-06-09T10:08:03+02:00</time>
   </trkpt>
   <trkpt lat="47.836339" lon="6.880476">
    <ele>0</ele>
    <time>2020-06-09T10:08:08+02:00</time>
   </trkpt>
   <trkpt lat="47.836713" lon="6.879618">
    <ele>0</ele>
    <time>2020-06-09T10:08:13+02:00</time>
   </trkpt>
   <trkpt lat="47.836742" lon="6.878631">
    <ele>0</ele>
    <time>2020-06-09T10:08:18+02:00</time>
   </trkpt>
   <trkpt lat="47.836713" lon="6.877944">
    <ele>0</ele>
    <time>2020-06-09T10:08:23+02:00</time>
   </trkpt>
   <trkpt lat="47.836541" lon="6.877343">
    <ele>0</ele>
    <time>2020-06-09T10:08:28+02:00</time>
   </trkpt>
   <trkpt lat="47.83631" lon="6.876571">
    <ele>0</ele>
    <time>2020-06-09T10:08:33+02:00</time>
   </trkpt>
   <trkpt lat="47.835907" lon="6.87597">
    <ele>0</ele>
    <time>2020-06-09T10:08:38+02:00</time>
   </trkpt>
   <trkpt lat="47.835532" lon="6.875584">
    <ele>0</ele>
    <time>2020-06-09T10:08:43+02:00</time>
   </trkpt>
   <trkpt lat="47.8351" lon="6.87524">
    <ele>0</ele>
    <time>2020-06-09T10:08:48+02:00</time>
   </trkpt>
   <trkpt lat="47.83487" lon="6.874811">
    <ele>0</ele>
    <time>2020-06-09T10:08:53+02:00</time>
   </trkpt>
   <trkpt lat="47.834726" lon="6.874339">
    <ele>0</ele>
    <time>2020-06-09T10:08:58+02:00</time>
   </trkpt>
   <trkpt lat="47.834582" lon="6.873567">
    <ele>0</ele>
    <time>2020-06-09T10:09:03+02:00</time>
   </trkpt>
   <trkpt lat="47.83438" lon="6.873223">
    <ele>0</ele>
    <time>2020-06-09T10:09:08+02:00</time>
   </trkpt>
   <trkpt lat="47.834063" lon="6.872193">
    <ele>0</ele>
    <time>2020-06-09T10:09:13+02:00</time>
   </trkpt>
   <trkpt lat="47.833689" lon="6.871807">
    <ele>0</ele>
    <time>2020-06-09T10:09:18+02:00</time>
   </trkpt>
   <trkpt lat="47.833545" lon="6.870734">
    <ele>0</ele>
    <time>2020-06-09T10:09:23+02:00</time>
   </trkpt>
   <trkpt lat="47.833458" lon="6.870391">
    <ele>0</ele>
    <time>2020-06-09T10:09:28+02:00</time>
   </trkpt>
   <trkpt lat="47.833948" lon="6.870091">
    <ele>0</ele>
    <time>2020-06-09T10:09:33+02:00</time>
   </trkpt>
   <trkpt lat="47.834236" lon="6.869704">
    <ele>0</ele>
    <time>2020-06-09T10:09:38+02:00</time>
   </trkpt>
   <trkpt lat="47.834697" lon="6.869747">
    <ele>0</ele>
    <time>2020-06-09T10:09:43+02:00</time>
   </trkpt>
   <trkpt lat="47.834985" lon="6.869704">
    <ele>0</ele>
    <time>2020-06-09T10:09:48+02:00</time>
   </trkpt>
   <trkpt lat="47.83559" lon="6.869447">
    <ele>0</ele>
    <time>2020-06-09T10:09:53+02:00</time>
   </trkpt>
   <trkpt lat="47.836598" lon="6.86979">
    <ele>0</ele>
    <time>2020-06-09T10:09:58+02:00</time>
   </trkpt>
   <trkpt lat="47.836944" lon="6.869618">
    <ele>0</ele>
    <time>2020-06-09T10:10:03+02:00</time>
   </trkpt>
   <trkpt lat="47.837088" lon="6.868588">
    <ele>0</ele>
    <time>2020-06-09T10:10:08+02:00</time>
   </trkpt>
   <trkpt lat="47.837549" lon="6.867773">
    <ele>0</ele>
    <time>2020-06-09T10:10:13+02:00</time>
   </trkpt>
   <trkpt lat="47.837693" lon="6.867301">
    <ele>0</ele>
    <time>2020-06-09T10:10:18+02:00</time>
   </trkpt>
   <trkpt lat="47.837895" lon="6.866657">
    <ele>0</ele>
    <time>2020-06-09T10:10:23+02:00</time>
   </trkpt>
   <trkpt lat="47.838096" lon="6.865799">
    <ele>0</ele>
    <time>2020-06-09T10:10:28+02:00</time>
   </trkpt>
   <trkpt lat="47.838355" lon="6.865069">
    <ele>0</ele>
    <time>2020-06-09T10:10:33+02:00</time>
   </trkpt>
   <trkpt lat="47.838154" lon="6.864125">
    <ele>0</ele>
    <time>2020-06-09T10:10:38+02:00</time>
   </trkpt>
   <trkpt lat="47.837837" lon="6.863567">
    <ele>0</ele>
    <time>2020-06-09T10:10:43+02:00</time>
   </trkpt>
   <trkpt lat="47.837491" lon="6.863138">
    <ele>0</ele>
    <time>2020-06-09T10:10:48+02:00</time>
   </trkpt>
   <trkpt lat="47.83729" lon="6.862838">
    <ele>0</ele>
    <time>2020-06-09T10:10:53+02:00</time>
   </trkpt>
   <trkpt lat="47.837174" lon="6.861937">
    <ele>0</ele>
    <time>2020-06-09T10:10:58+02:00</time>
   </trkpt>
   <trkpt lat="47.836973" lon="6.861636">
    <ele>0</ele>
    <time>2020-06-09T10:11:03+02:00</time>
   </trkpt>
   <trkpt lat="47.836397" lon="6.860864">
    <ele>0</ele>
    <time>2020-06-09T10:11:08+02:00</time>
   </trkpt>
   <trkpt lat="47.835936" lon="6.86052">
    <ele>0</ele>
    <time>2020-06-09T10:11:13+02:00</time>
   </trkpt>
   <trkpt lat="47.83559" lon="6.86052">
    <ele>0</ele>
    <time>2020-06-09T10:11:18+02:00</time>
   </trkpt>
   <trkpt lat="47.834812" lon="6.860435">
    <ele>0</ele>
    <time>2020-06-09T10:11:23+02:00</time>
   </trkpt>
   <trkpt lat="47.834495" lon="6.860306">
    <ele>0</ele>
    <time>2020-06-09T10:11:28+02:00</time>
   </trkpt>
   <trkpt lat="47.833775" lon="6.860177">
    <ele>0</ele>
    <time>2020-06-09T10:11:33+02:00</time>
   </trkpt>
   <trkpt lat="47.833228" lon="6.860177">
    <ele>0</ele>
    <time>2020-06-09T10:11:38+02:00</time>
   </trkpt>
   <trkpt lat="47.832853" lon="6.85992">
    <ele>0</ele>
    <time>2020-06-09T10:11:43+02:00</time>
   </trkpt>
   <trkpt lat="47.832479" lon="6.859877">
    <ele>0</ele>
    <time>2020-06-09T10:11:48+02:00</time>
   </trkpt>
   <trkpt lat="47.832248" lon="6.85949">
    <ele>0</ele>
    <time>2020-06-09T10:11:53+02:00</time>
   </trkpt>
   <trkpt lat="47.832191" lon="6.858761">
    <ele>0</ele>
    <time>2020-06-09T10:11:58+02:00</time>
   </trkpt>
   <trkpt lat="47.832594" lon="6.858203">
    <ele>0</ele>
    <time>2020-06-09T10:12:03+02:00</time>
   </trkpt>
   <trkpt lat="47.832824" lon="6.857817">
    <ele>0</ele>
    <time>2020-06-09T10:12:08+02:00</time>
   </trkpt>
   <trkpt lat="47.833084" lon="6.857302">
    <ele>0</ele>
    <time>2020-06-09T10:12:13+02:00</time>
   </trkpt>
   <trkpt lat="47.833141" lon="6.856529">
    <ele>0</ele>
    <time>2020-06-09T10:12:18+02:00</time>
   </trkpt>
   <trkpt lat="47.833141" lon="6.855928">
    <ele>0</ele>
    <time>2020-06-09T10:12:23+02:00</time>
   </trkpt>
   <trkpt lat="47.833343" lon="6.855285">
    <ele>0</ele>
    <time>2020-06-09T10:12:28+02:00</time>
   </trkpt>
   <trkpt lat="47.833717" lon="6.854512">
    <ele>0</ele>
    <time>2020-06-09T10:12:33+02:00</time>
   </trkpt>
   <trkpt lat="47.833689" lon="6.853997">
    <ele>0</ele>
    <time>2020-06-09T10:12:38+02:00</time>
   </trkpt>
   <trkpt lat="47.834092" lon="6.853311">
    <ele>0</ele>
    <time>2020-06-09T10:12:43+02:00</time>
   </trkpt>
   <trkpt lat="47.834467" lon="6.852924">
    <ele>0</ele>
    <time>2020-06-09T10:12:48+02:00</time>
   </trkpt>
   <trkpt lat="47.83487" lon="6.852409">
    <ele>0</ele>
    <time>2020-06-09T10:12:53+02:00</time>
   </trkpt>
   <trkpt lat="47.835187" lon="6.852281">
    <ele>0</ele>
    <time>2020-06-09T10:12:58+02:00</time>
   </trkpt>
   <trkpt lat="47.835475" lon="6.851165">
    <ele>0</ele>
    <time>2020-06-09T10:13:03+02:00</time>
   </trkpt>
   <trkpt lat="47.835763" lon="6.850822">
    <ele>0</ele>
    <time>2020-06-09T10:13:08+02:00</time>
   </trkpt>
   <trkpt lat="47.835648" lon="6.850178">
    <ele>0</ele>
    <time>2020-06-09T10:13:13+02:00</time>
   </trkpt>
   <trkpt lat="47.835388" lon="6.849663">
    <ele>0</ele>
    <time>2020-06-09T10:13:18+02:00</time>
   </trkpt>
   <trkpt lat="47.835561" lon="6.849448">
    <ele>0</ele>
    <time>2020-06-09T10:13:23+02:00</time>
   </trkpt>
   <trkpt lat="47.836051" lon="6.849062">
    <ele>0</ele>
    <time>2020-06-09T10:13:28+02:00</time>
   </trkpt>
   <trkpt lat="47.836713" lon="6.849019">
    <ele>0</ele>
    <time>2020-06-09T10:13:33+02:00</time>
   </trkpt>
   <trkpt lat="47.837261" lon="6.849577">
    <ele>0</ele>
    <time>2020-06-09T10:13:38+02:00</time>
   </trkpt>
   <trkpt lat="47.837491" lon="6.849577">
    <ele>0</ele>
    <time>2020-06-09T10:13:43+02:00</time>
   </trkpt>
   <trkpt lat="47.83801" lon="6.850049">
    <ele>0</ele>
    <time>2020-06-09T10:13:48+02:00</time>
   </trkpt>
   <trkpt lat="47.838643" lon="6.850478">
    <ele>0</ele>
    <time>2020-06-09T10:13:53+02:00</time>
   </trkpt>
   <trkpt lat="47.839335" lon="6.850392">
    <ele>0</ele>
    <time>2020-06-09T10:13:58+02:00</time>
   </trkpt>
   <trkpt lat="47.839623" lon="6.851079">
    <ele>0</ele>
    <time>2020-06-09T10:14:03+02:00</time>
   </trkpt>
   <trkpt lat="47.83994" lon="6.851294">
    <ele>0</ele>
    <time>2020-06-09T10:14:08+02:00</time>
   </trkpt>
   <trkpt lat="47.840343" lon="6.851551">
    <ele>0</ele>
    <time>2020-06-09T10:14:13+02:00</time>
   </trkpt>
   <trkpt lat="47.840775" lon="6.851551">
    <ele>0</ele>
    <time>2020-06-09T10:14:18+02:00</time>
   </trkpt>
   <trkpt lat="47.841092" lon="6.851465">
    <ele>0</ele>
    <time>2020-06-09T10:14:23+02:00</time>
   </trkpt>
   <trkpt lat="47.841351" lon="6.851122">
    <ele>0</ele>
    <time>2020-06-09T10:14:28+02:00</time>
   </trkpt>
   <trkpt lat="47.841668" lon="6.850736">
    <ele>0</ele>
    <time>2020-06-09T10:14:33+02:00</time>
   </trkpt>
   <trkpt lat="47.842619" lon="6.850006">
    <ele>0</ele>
    <time>2020-06-09T10:14:38+02:00</time>
   </trkpt>
   <trkpt lat="47.843051" lon="6.849577">
    <ele>0</ele>
    <time>2020-06-09T10:14:43+02:00</time>
   </trkpt>
   <trkpt lat="47.843079" lon="6.848933">
    <ele>0</ele>
    <time>2020-06-09T10:14:48+02:00</time>
   </trkpt>
   <trkpt lat="47.84282" lon="6.84829">
    <ele>0</ele>
    <time>2020-06-09T10:14:53+02:00</time>
   </trkpt>
   <trkpt lat="47.842676" lon="6.847732">
    <ele>0</ele>
    <time>2020-06-09T10:14:58+02:00</time>
   </trkpt>
   <trkpt lat="47.842417" lon="6.847217">
    <ele>0</ele>
    <time>2020-06-09T10:15:03+02:00</time>
   </trkpt>
   <trkpt lat="47.842071" lon="6.84653">
    <ele>0</ele>
    <time>2020-06-09T10:15:08+02:00</time>
   </trkpt>
   <trkpt lat="47.841668" lon="6.845972">
    <ele>0</ele>
    <time>2020-06-09T10:15:13+02:00</time>
   </trkpt>
   <trkpt lat="47.841697" lon="6.845414">
    <ele>0</ele>
    <time>2020-06-09T10:15:18+02:00</time>
   </trkpt>
   <trkpt lat="47.842417" lon="6.844728">
    <ele>0</ele>
    <time>2020-06-09T10:15:23+02:00</time>
   </trkpt>
   <trkpt lat="47.842993" lon="6.844041">
    <ele>0</ele>
    <time>2020-06-09T10:15:28+02:00</time>
   </trkpt>
   <trkpt lat="47.843943" lon="6.842882">
    <ele>0</ele>
    <time>2020-06-09T10:15:33+02:00</time>
   </trkpt>
   <trkpt lat="47.844404" lon="6.842324">
    <ele>0</ele>
    <time>2020-06-09T10:15:38+02:00</time>
   </trkpt>
   <trkpt lat="47.845038" lon="6.842281">
    <ele>0</ele>
    <time>2020-06-09T10:15:43+02:00</time>
   </trkpt>
   <trkpt lat="47.84547" lon="6.842067">
    <ele>0</ele>
    <time>2020-06-09T10:15:48+02:00</time>
   </trkpt>
   <trkpt lat="47.845384" lon="6.841037">
    <ele>0</ele>
    <time>2020-06-09T10:15:53+02:00</time>
   </trkpt>
   <trkpt lat="47.845096" lon="6.839792">
    <ele>0</ele>
    <time>2020-06-09T10:15:58+02:00</time>
   </trkpt>
   <trkpt lat="47.845096" lon="6.839149">
    <ele>0</ele>
    <time>2020-06-09T10:16:03+02:00</time>
   </trkpt>
   <trkpt lat="47.845355" lon="6.838204">
    <ele>0</ele>
    <time>2020-06-09T10:16:08+02:00</time>
   </trkpt>
   <trkpt lat="47.846219" lon="6.837604">
    <ele>0</ele>
    <time>2020-06-09T10:16:13+02:00</time>
   </trkpt>
   <trkpt lat="47.846564" lon="6.837303">
    <ele>0</ele>
    <time>2020-06-09T10:16:18+02:00</time>
   </trkpt>
   <trkpt lat="47.847227" lon="6.835758">
    <ele>0</ele>
    <time>2020-06-09T10:16:23+02:00</time>
   </trkpt>
   <trkpt lat="47.847083" lon="6.835286">
    <ele>0</ele>
    <time>2020-06-09T10:16:28+02:00</time>
   </trkpt>
   <trkpt lat="47.84619" lon="6.835072">
    <ele>0</ele>
    <time>2020-06-09T10:16:33+02:00</time>
   </trkpt>
   <trkpt lat="47.8457" lon="6.834857">
    <ele>0</ele>
    <time>2020-06-09T10:16:38+02:00</time>
   </trkpt>
   <trkpt lat="47.845096" lon="6.835243">
    <ele>0</ele>
    <time>2020-06-09T10:16:43+02:00</time>
   </trkpt>
   <trkpt lat="47.84452" lon="6.835629">
    <ele>0</ele>
    <time>2020-06-09T10:16:48+02:00</time>
   </trkpt>
   <trkpt lat="47.84426" lon="6.835844">
    <ele>0</ele>
    <time>2020-06-09T10:16:53+02:00</time>
   </trkpt>
   <trkpt lat="47.843742" lon="6.835801">
    <ele>0</ele>
    <time>2020-06-09T10:16:58+02:00</time>
   </trkpt>
   <trkpt lat="47.843281" lon="6.835801">
    <ele>0</ele>
    <time>2020-06-09T10:17:03+02:00</time>
   </trkpt>
   <trkpt lat="47.841898" lon="6.836059">
    <ele>0</ele>
    <time>2020-06-09T10:17:08+02:00</time>
   </trkpt>
   <trkpt lat="47.841438" lon="6.836144">
    <ele>0</ele>
    <time>2020-06-09T10:17:13+02:00</time>
   </trkpt>
   <trkpt lat="47.841553" lon="6.835072">
    <ele>0</ele>
    <time>2020-06-09T10:17:18+02:00</time>
   </trkpt>
   <trkpt lat="47.841812" lon="6.834127">
    <ele>0</ele>
    <time>2020-06-09T10:17:23+02:00</time>
   </trkpt>
   <trkpt lat="47.841898" lon="6.833097">
    <ele>0</ele>
    <time>2020-06-09T10:17:28+02:00</time>
   </trkpt>
   <trkpt lat="47.841466" lon="6.832711">
    <ele>0</ele>
    <time>2020-06-09T10:17:33+02:00</time>
   </trkpt>
   <trkpt lat="47.841178" lon="6.832668">
    <ele>0</ele>
    <time>2020-06-09T10:17:38+02:00</time>
   </trkpt>
   <trkpt lat="47.840775" lon="6.832239">
    <ele>0</ele>
    <time>2020-06-09T10:17:43+02:00</time>
   </trkpt>
   <trkpt lat="47.840458" lon="6.831767">
    <ele>0</ele>
    <time>2020-06-09T10:17:48+02:00</time>
   </trkpt>
   <trkpt lat="47.840199" lon="6.831295">
    <ele>0</ele>
    <time>2020-06-09T10:17:53+02:00</time>
   </trkpt>
   <trkpt lat="47.839853" lon="6.830565">
    <ele>0</ele>
    <time>2020-06-09T10:17:58+02:00</time>
   </trkpt>
   <trkpt lat="47.839421" lon="6.829664">
    <ele>0</ele>
    <time>2020-06-09T10:18:03+02:00</time>
   </trkpt>
   <trkpt lat="47.839191" lon="6.828849">
    <ele>0</ele>
    <time>2020-06-09T10:18:08+02:00</time>
   </trkpt>
   <trkpt lat="47.838759" lon="6.82842">
    <ele>0</ele>
    <time>2020-06-09T10:18:13+02:00</time>
   </trkpt>
   <trkpt lat="47.838211" lon="6.827561">
    <ele>0</ele>
    <time>2020-06-09T10:18:18+02:00</time>
   </trkpt>
   <trkpt lat="47.837779" lon="6.826961">
    <ele>0</ele>
    <time>2020-06-09T10:18:23+02:00</time>
   </trkpt>
   <trkpt lat="47.837664" lon="6.826574">
    <ele>0</ele>
    <time>2020-06-09T10:18:28+02:00</time>
   </trkpt>
   <trkpt lat="47.837434" lon="6.825974">
    <ele>0</ele>
    <time>2020-06-09T10:18:33+02:00</time>
   </trkpt>
   <trkpt lat="47.837347" lon="6.825802">
    <ele>0</ele>
    <time>2020-06-09T10:18:38+02:00</time>
   </trkpt>
   <trkpt lat="47.837088" lon="6.825759">
    <ele>0</ele>
    <time>2020-06-09T10:18:43+02:00</time>
   </trkpt>
   <trkpt lat="47.836858" lon="6.825845">
    <ele>0</ele>
    <time>2020-06-09T10:18:48+02:00</time>
   </trkpt>
   <trkpt lat="47.836569" lon="6.825974">
    <ele>0</ele>
    <time>2020-06-09T10:18:53+02:00</time>
   </trkpt>
   <trkpt lat="47.836166" lon="6.826145">
    <ele>0</ele>
    <time>2020-06-09T10:18:58+02:00</time>
   </trkpt>
   <trkpt lat="47.835561" lon="6.82636">
    <ele>0</ele>
    <time>2020-06-09T10:19:03+02:00</time>
   </trkpt>
   <trkpt lat="47.835648" lon="6.826145">
    <ele>0</ele>
    <time>2020-06-09T10:19:08+02:00</time>
   </trkpt>
   <trkpt lat="47.835878" lon="6.825673">
    <ele>0</ele>
    <time>2020-06-09T10:19:13+02:00</time>
   </trkpt>
   <trkpt lat="47.835993" lon="6.824901">
    <ele>0</ele>
    <time>2020-06-09T10:19:18+02:00</time>
   </trkpt>
   <trkpt lat="47.835878" lon="6.823999">
    <ele>0</ele>
    <time>2020-06-09T10:19:23+02:00</time>
   </trkpt>
   <trkpt lat="47.836137" lon="6.823484">
    <ele>0</ele>
    <time>2020-06-09T10:19:28+02:00</time>
   </trkpt>
   <trkpt lat="47.836713" lon="6.822841">
    <ele>0</ele>
    <time>2020-06-09T10:19:33+02:00</time>
   </trkpt>
   <trkpt lat="47.837059" lon="6.822497">
    <ele>0</ele>
    <time>2020-06-09T10:19:38+02:00</time>
   </trkpt>
   <trkpt lat="47.837693" lon="6.822497">
    <ele>0</ele>
    <time>2020-06-09T10:19:43+02:00</time>
   </trkpt>
   <trkpt lat="47.838499" lon="6.821467">
    <ele>0</ele>
    <time>2020-06-09T10:19:48+02:00</time>
   </trkpt>
   <trkpt lat="47.839277" lon="6.82091">
    <ele>0</ele>
    <time>2020-06-09T10:19:53+02:00</time>
   </trkpt>
   <trkpt lat="47.839709" lon="6.82018">
    <ele>0</ele>
    <time>2020-06-09T10:19:58+02:00</time>
   </trkpt>
   <trkpt lat="47.840343" lon="6.819708">
    <ele>0</ele>
    <time>2020-06-09T10:20:03+02:00</time>
   </trkpt>
   <trkpt lat="47.840775" lon="6.818335">
    <ele>0</ele>
    <time>2020-06-09T10:20:08+02:00</time>
   </trkpt>
   <trkpt lat="47.841351" lon="6.816961">
    <ele>0</ele>
    <time>2020-06-09T10:20:13+02:00</time>
   </trkpt>
   <trkpt lat="47.842042" lon="6.816961">
    <ele>0</ele>
    <time>2020-06-09T10:20:18+02:00</time>
   </trkpt>
   <trkpt lat="47.843195" lon="6.815631">
    <ele>0</ele>
    <time>2020-06-09T10:20:23+02:00</time>
   </trkpt>
   <trkpt lat="47.84354" lon="6.815073">
    <ele>0</ele>
    <time>2020-06-09T10:20:28+02:00</time>
   </trkpt>
   <trkpt lat="47.843684" lon="6.814258">
    <ele>0</ele>
    <time>2020-06-09T10:20:33+02:00</time>
   </trkpt>
   <trkpt lat="47.844376" lon="6.813399">
    <ele>0</ele>
    <time>2020-06-09T10:20:38+02:00</time>
   </trkpt>
   <trkpt lat="47.845124" lon="6.812713">
    <ele>0</ele>
    <time>2020-06-09T10:20:43+02:00</time>
   </trkpt>
   <trkpt lat="47.845326" lon="6.812112">
    <ele>0</ele>
    <time>2020-06-09T10:20:48+02:00</time>
   </trkpt>
   <trkpt lat="47.846276" lon="6.811254">
    <ele>0</ele>
    <time>2020-06-09T10:20:53+02:00</time>
   </trkpt>
   <trkpt lat="47.84642" lon="6.810953">
    <ele>0</ele>
    <time>2020-06-09T10:20:58+02:00</time>
   </trkpt>
   <trkpt lat="47.847198" lon="6.810438">
    <ele>0</ele>
    <time>2020-06-09T10:21:03+02:00</time>
   </trkpt>
   <trkpt lat="47.847256" lon="6.810267">
    <ele>0</ele>
    <time>2020-06-09T10:21:08+02:00</time>
   </trkpt>
   <trkpt lat="47.847688" lon="6.810824">
    <ele>0</ele>
    <time>2020-06-09T10:21:13+02:00</time>
   </trkpt>
   <trkpt lat="47.848206" lon="6.811339">
    <ele>0</ele>
    <time>2020-06-09T10:21:18+02:00</time>
   </trkpt>
   <trkpt lat="47.848321" lon="6.811726">
    <ele>0</ele>
    <time>2020-06-09T10:21:23+02:00</time>
   </trkpt>
   <trkpt lat="47.848523" lon="6.812155">
    <ele>0</ele>
    <time>2020-06-09T10:21:28+02:00</time>
   </trkpt>
   <trkpt lat="47.848753" lon="6.812713">
    <ele>0</ele>
    <time>2020-06-09T10:21:33+02:00</time>
   </trkpt>
   <trkpt lat="47.84884" lon="6.813442">
    <ele>0</ele>
    <time>2020-06-09T10:21:38+02:00</time>
   </trkpt>
   <trkpt lat="47.849185" lon="6.814172">
    <ele>0</ele>
    <time>2020-06-09T10:21:43+02:00</time>
   </trkpt>
   <trkpt lat="47.849588" lon="6.814172">
    <ele>0</ele>
    <time>2020-06-09T10:21:48+02:00</time>
   </trkpt>
   <trkpt lat="47.850222" lon="6.814429">
    <ele>0</ele>
    <time>2020-06-09T10:21:53+02:00</time>
   </trkpt>
   <trkpt lat="47.850683" lon="6.814515">
    <ele>0</ele>
    <time>2020-06-09T10:21:58+02:00</time>
   </trkpt>
   <trkpt lat="47.851259" lon="6.814301">
    <ele>0</ele>
    <time>2020-06-09T10:22:03+02:00</time>
   </trkpt>
   <trkpt lat="47.85172" lon="6.814301">
    <ele>0</ele>
    <time>2020-06-09T10:22:08+02:00</time>
   </trkpt>
   <trkpt lat="47.853102" lon="6.815073">
    <ele>0</ele>
    <time>2020-06-09T10:22:13+02:00</time>
   </trkpt>
   <trkpt lat="47.853361" lon="6.815545">
    <ele>0</ele>
    <time>2020-06-09T10:22:18+02:00</time>
   </trkpt>
   <trkpt lat="47.853419" lon="6.816103">
    <ele>0</ele>
    <time>2020-06-09T10:22:23+02:00</time>
   </trkpt>
   <trkpt lat="47.853764" lon="6.81679">
    <ele>0</ele>
    <time>2020-06-09T10:22:28+02:00</time>
   </trkpt>
   <trkpt lat="47.853908" lon="6.81679">
    <ele>0</ele>
    <time>2020-06-09T10:22:33+02:00</time>
   </trkpt>
   <trkpt lat="47.854052" lon="6.817519">
    <ele>0</ele>
    <time>2020-06-09T10:22:38+02:00</time>
   </trkpt>
   <trkpt lat="47.854196" lon="6.818077">
    <ele>0</ele>
    <time>2020-06-09T10:22:43+02:00</time>
   </trkpt>
   <trkpt lat="47.854743" lon="6.818893">
    <ele>0</ele>
    <time>2020-06-09T10:22:48+02:00</time>
   </trkpt>
   <trkpt lat="47.855262" lon="6.81915">
    <ele>0</ele>
    <time>2020-06-09T10:22:53+02:00</time>
   </trkpt>
   <trkpt lat="47.855262" lon="6.81915">
    <ele>0</ele>
    <time>2020-06-09T10:22:58+02:00</time>
   </trkpt>
  </trkseg>
 </trk></gpx>
